Time;durP1;ratioP1;P1;durP2;ratioP2;P2;SDS_P1;SDS_P2;PMS_P1;PMS_P2;Temp;Humidity;BMP_temperature;BMP_pressure;BME280_temperature;BME280_humidity;BME280_pressure;Samples;Min_cycle;Max_cycle;Signal;HPM_P1;HPM_P2
2022/06/10 00:01:47;;;;;;;4.95;2.80;;;12.20;99.90;;;;;;5020304;28;20414;-48
2022/06/10 00:04:14;;;;;;;5.60;2.67;;;12.10;99.90;;;;;;5022480;28;20057;-47
2022/06/10 00:06:39;;;;;;;9.73;2.78;;;12.10;99.90;;;;;;5018892;28;20072;-45
2022/06/10 00:09:05;;;;;;;9.18;2.92;;;12.00;99.90;;;;;;5020600;28;20057;-47
2022/06/10 00:11:31;;;;;;;9.80;3.22;;;12.00;99.90;;;;;;5021670;28;20087;-46
2022/06/10 00:13:56;;;;;;;7.90;3.05;;;11.90;99.90;;;;;;5023092;28;20045;-47
2022/06/10 00:16:23;;;;;;;8.30;3.42;;;11.90;99.90;;;;;;5021183;28;20184;-45
2022/06/10 00:18:49;;;;;;;5.38;2.60;;;11.80;99.90;;;;;;5023773;28;20042;-46
2022/06/10 00:21:17;;;;;;;7.63;2.97;;;11.80;99.90;;;;;;5020024;28;21252;-48
2022/06/10 00:23:43;;;;;;;9.20;3.20;;;11.80;99.90;;;;;;5022531;28;20041;-46
2022/06/10 00:26:10;;;;;;;6.50;2.72;;;11.80;99.90;;;;;;5020285;28;20033;-47
2022/06/10 00:28:36;;;;;;;10.57;2.95;;;11.80;99.90;;;;;;5027383;28;20037;-46
2022/06/10 00:31:03;;;;;;;8.45;2.83;;;11.80;99.90;;;;;;5025569;28;21399;-51
2022/06/10 00:33:33;;;;;;;9.10;3.13;;;11.70;99.90;;;;;;5019914;28;20049;-48
2022/06/10 00:35:59;;;;;;;9.40;2.80;;;11.70;99.90;;;;;;5023642;28;20491;-46
2022/06/10 00:38:25;;;;;;;7.68;2.97;;;11.70;99.90;;;;;;5027704;28;20050;-47
2022/06/10 00:40:54;;;;;;;8.25;3.00;;;11.70;99.90;;;;;;5025925;28;20715;-49
2022/06/10 00:43:23;;;;;;;10.25;3.45;;;11.60;99.90;;;;;;5023447;28;20097;-45
2022/06/10 00:45:54;;;;;;;8.43;3.38;;;11.60;99.90;;;;;;5020617;28;20389;-48
2022/06/10 00:48:52;;;;;;;10.90;2.85;;;11.70;99.90;;;;;;5023760;28;20510;-45
2022/06/10 00:51:38;;;;;;;10.32;3.35;;;11.70;99.90;;;;;;5025631;28;20045;-48
2022/06/10 00:54:15;;;;;;;8.25;2.90;;;11.80;99.90;;;;;;5024527;28;20045;-48
2022/06/10 00:57:03;;;;;;;11.70;3.42;;;11.80;99.90;;;;;;5024024;28;20045;-45
2022/06/10 00:59:33;;;;;;;8.70;3.25;;;11.90;99.90;;;;;;5025703;28;20053;-48
2022/06/10 01:02:07;;;;;;;9.80;3.17;;;11.90;99.90;;;;;;5023983;28;20539;-46
2022/06/10 01:04:33;;;;;;;7.10;3.33;;;12.00;99.90;;;;;;5022658;28;20049;-47
2022/06/10 01:06:58;;;;;;;13.68;3.33;;;12.00;99.90;;;;;;5020598;28;20060;-45
2022/06/10 01:09:26;;;;;;;11.25;3.38;;;11.90;99.90;;;;;;5023776;28;20333;-46
2022/06/10 01:12:21;;;;;;;9.13;2.75;;;12.00;99.90;;;;;;5024683;28;20033;-47
2022/06/10 01:14:55;;;;;;;6.53;3.25;;;11.90;99.90;;;;;;5022641;28;20049;-46
2022/06/10 01:17:35;;;;;;;8.88;3.38;;;12.00;99.90;;;;;;5023407;28;20877;-50
2022/06/10 01:20:19;;;;;;;13.18;3.55;;;12.00;99.90;;;;;;5024771;28;20687;-49
2022/06/10 01:22:53;;;;;;;8.40;3.17;;;12.00;99.90;;;;;;5022853;28;20456;-48
2022/06/10 01:25:56;;;;;;;9.45;3.22;;;11.90;99.90;;;;;;5021450;28;20419;-46
2022/06/10 01:28:59;;;;;;;9.43;3.40;;;12.00;99.90;;;;;;5020497;28;20376;-47
2022/06/10 01:31:50;;;;;;;10.95;3.25;;;12.10;99.90;;;;;;5023979;28;20127;-47
2022/06/10 01:34:18;;;;;;;9.85;3.30;;;12.10;99.90;;;;;;5023850;28;20532;-46
2022/06/10 01:37:03;;;;;;;6.88;2.85;;;12.20;99.90;;;;;;5026065;28;20398;-46
2022/06/10 01:39:43;;;;;;;6.00;3.00;;;12.20;99.90;;;;;;5022612;28;20048;-47
2022/06/10 01:42:22;;;;;;;8.68;3.00;;;12.20;99.90;;;;;;5020615;28;20048;-46
2022/06/10 01:45:09;;;;;;;7.43;3.20;;;12.20;99.90;;;;;;5020732;28;20037;-47
2022/06/10 01:47:39;;;;;;;9.00;3.17;;;12.30;99.90;;;;;;5020420;28;20034;-46
2022/06/10 01:52:42;;;;;;;6.80;3.22;;;12.30;99.90;;;;;;5051192;28;20461;-48
2022/06/10 01:55:11;;;;;;;10.82;3.45;;;12.20;99.90;;;;;;5060731;28;20041;-46
2022/06/10 01:58:08;;;;;;;11.73;3.40;;;12.20;99.90;;;;;;5057262;28;20039;-47
2022/06/10 02:00:36;;;;;;;9.50;3.00;;;12.20;99.90;;;;;;5042915;28;20067;-47
2022/06/10 02:03:21;;;;;;;6.35;2.97;;;12.30;99.90;;;;;;5055284;28;20119;-46
2022/06/10 02:05:56;;;;;;;8.88;3.00;;;12.20;99.90;;;;;;5054987;28;20135;-50
2022/06/10 02:08:34;;;;;;;9.55;3.08;;;12.20;99.90;;;;;;5051622;28;20146;-48
2022/06/10 02:11:03;;;;;;;;;;;12.10;99.90;;;;;;5058784;28;20506;-51
2022/06/10 02:13:34;;;;;;;8.55;3.25;;;12.10;99.90;;;;;;5050781;28;19924;-50
2022/06/10 02:16:02;;;;;;;6.75;3.00;;;12.00;99.90;;;;;;5057594;28;20078;-47
2022/06/10 02:18:41;;;;;;;8.75;3.40;;;12.00;99.90;;;;;;5052614;28;20127;-49
2022/06/10 02:21:28;;;;;;;9.13;3.50;;;11.90;99.90;;;;;;5053428;28;20171;-47
2022/06/10 02:23:58;;;;;;;9.38;3.97;;;11.90;99.90;;;;;;5065217;28;20044;-45
2022/06/10 02:26:27;;;;;;;10.95;3.97;;;11.80;99.90;;;;;;5050017;28;20044;-48
2022/06/10 02:28:55;;;;;;;7.72;4.10;;;11.80;99.90;;;;;;5057918;28;20052;-46
2022/06/10 02:31:32;;;;;;;11.23;4.22;;;11.70;99.90;;;;;;5053952;28;20048;-47
2022/06/10 02:33:59;;;;;;;9.55;4.03;;;11.70;99.90;;;;;;5055757;28;20041;-47
2022/06/10 02:36:30;;;;;;;6.73;3.93;;;11.70;99.90;;;;;;5054814;28;20082;-49
2022/06/10 02:39:13;;;;;;;8.77;4.35;;;11.60;99.90;;;;;;5053159;28;20491;-47
2022/06/10 02:41:49;;;;;;;11.65;3.88;;;11.50;99.90;;;;;;5056532;28;20063;-45
2022/06/10 02:44:44;;;;;;;12.60;4.97;;;11.50;99.90;;;;;;5060642;28;20037;-45
2022/06/10 02:47:16;;;;;;;8.77;4.35;;;11.50;99.90;;;;;;5059741;28;20426;-46
2022/06/10 02:49:42;;;;;;;12.43;5.00;;;11.50;99.90;;;;;;5052123;28;20491;-45
2022/06/10 02:52:11;;;;;;;11.32;4.47;;;11.50;99.90;;;;;;5047767;28;20059;-46
2022/06/10 02:54:40;;;;;;;9.57;5.07;;;11.40;99.90;;;;;;5054714;28;20628;-47
2022/06/10 03:03:33;;;;;;;10.32;4.90;;;11.30;99.90;;;;;;5061322;28;20118;-45
2022/06/10 03:06:19;;;;;;;10.48;5.15;;;11.30;99.90;;;;;;5056706;28;20041;-46
2022/06/10 03:08:53;;;;;;;8.27;4.65;;;11.30;99.90;;;;;;5072644;28;20106;-45
2022/06/10 03:11:34;;;;;;;9.35;4.80;;;11.30;99.90;;;;;;5049976;28;20047;-45
2022/06/10 03:14:26;;;;;;;9.77;4.90;;;11.30;99.90;;;;;;5057704;28;20389;-46
2022/06/10 03:17:00;;;;;;;13.90;5.30;;;11.30;99.90;;;;;;5027119;28;20051;-45
2022/06/10 03:19:42;;;;;;;10.02;4.80;;;11.30;99.90;;;;;;5058883;28;20037;-45
2022/06/10 03:22:26;;;;;;;8.65;4.90;;;11.30;99.90;;;;;;5050269;28;20040;-45
2022/06/10 03:25:16;;;;;;;12.27;5.50;;;11.30;99.90;;;;;;5053628;28;20048;-46
2022/06/10 03:27:59;;;;;;;11.35;5.88;;;11.30;99.90;;;;;;5053576;28;20075;-47
2022/06/10 03:30:30;;;;;;;6.40;4.82;;;11.30;99.90;;;;;;5057792;28;20040;-46
2022/06/10 03:33:14;;;;;;;10.75;5.00;;;11.30;99.90;;;;;;5062537;28;20155;-46
2022/06/10 03:35:53;;;;;;;9.20;5.47;;;11.30;99.90;;;;;;5052059;28;20037;-46
2022/06/10 03:38:19;;;;;;;9.38;5.53;;;11.40;99.90;;;;;;5053404;28;20464;-45
2022/06/10 03:40:56;;;;;;;11.73;4.97;;;11.40;99.90;;;;;;5049513;28;20041;-45
2022/06/10 03:43:24;;;;;;;11.75;5.45;;;11.50;99.90;;;;;;5051358;28;20043;-45
2022/06/10 03:46:02;;;;;;;12.43;5.22;;;11.50;99.90;;;;;;5048214;28;20094;-45
2022/06/10 03:48:31;;;;;;;8.73;5.10;;;11.50;99.90;;;;;;5060727;28;20063;-47
2022/06/10 03:50:57;;;;;;;9.52;5.80;;;11.50;99.90;;;;;;5053854;28;20463;-46
2022/06/10 03:53:25;;;;;;;9.77;5.15;;;11.50;99.90;;;;;;5058471;28;20076;-46
2022/06/10 03:55:51;;;;;;;;;;;11.60;99.90;;;;;;5053248;28;20371;-45
2022/06/10 03:58:17;;;;;;;7.47;5.15;;;11.60;99.90;;;;;;5050954;28;19931;-47
2022/06/10 04:00:43;;;;;;;9.02;5.25;;;11.70;99.90;;;;;;5049771;28;20048;-45
2022/06/10 04:03:09;;;;;;;11.05;5.32;;;11.80;99.90;;;;;;5058513;28;20049;-47
2022/06/10 04:05:34;;;;;;;10.45;5.68;;;11.80;99.90;;;;;;5052381;28;20037;-46
2022/06/10 04:08:00;;;;;;;12.35;6.07;;;11.80;99.90;;;;;;5057074;28;20041;-47
2022/06/10 04:10:27;;;;;;;12.25;5.60;;;11.90;99.90;;;;;;5055766;28;20476;-48
2022/06/10 04:12:53;;;;;;;11.90;6.30;;;11.90;99.90;;;;;;5054434;28;20037;-46
2022/06/10 04:15:19;;;;;;;9.82;6.18;;;12.00;99.90;;;;;;5054808;28;20135;-48
2022/06/10 04:17:48;;;;;;;12.18;6.20;;;12.20;99.90;;;;;;5056467;28;20068;-45
2022/06/10 04:20:23;;;;;;;8.50;6.22;;;12.20;99.90;;;;;;5060947;28;20459;-46
2022/06/10 04:22:49;;;;;;;11.27;6.18;;;12.20;99.90;;;;;;5048745;28;20430;-47
2022/06/10 04:25:15;;;;;;;11.05;5.93;;;12.30;99.90;;;;;;5060524;28;20033;-47
2022/06/10 04:27:41;;;;;;;8.85;6.38;;;12.40;99.90;;;;;;5052670;28;20037;-47
2022/06/10 04:30:23;;;;;;;10.45;6.05;;;12.50;99.90;;;;;;5058678;28;20051;-48
2022/06/10 04:32:49;;;;;;;13.27;6.88;;;12.70;99.90;;;;;;5055342;28;20041;-48
2022/06/10 04:35:15;;;;;;;11.60;7.03;;;13.00;99.90;;;;;;5057602;28;20098;-46
2022/06/10 04:37:41;;;;;;;15.65;6.50;;;;;;;;;;5052550;28;20040;-49
2022/06/10 04:40:08;;;;;;;13.40;6.53;;;15.10;99.90;;;;;;5059015;28;20556;-46
2022/06/10 04:42:33;;;;;;;8.98;6.00;;;16.40;99.90;;;;;;5058166;28;20396;-51
2022/06/10 04:44:59;;;;;;;12.02;5.80;;;17.60;99.90;;;;;;5057752;28;20096;-51
2022/06/10 04:47:25;;;;;;;8.73;5.80;;;18.40;99.90;;;;;;5059000;28;20103;-50
2022/06/10 04:49:50;;;;;;;10.73;5.82;;;18.90;99.90;;;;;;5062219;28;20047;-47
2022/06/10 04:52:16;;;;;;;10.63;5.15;;;19.90;99.90;;;;;;5062468;28;20051;-51
2022/06/10 04:54:41;;;;;;;10.15;5.15;;;19.90;99.90;;;;;;5058595;28;20100;-48
2022/06/10 04:57:07;;;;;;;8.02;4.50;;;20.60;99.90;;;;;;5047509;28;20049;-50
2022/06/10 04:59:33;;;;;;;10.48;4.95;;;21.40;99.90;;;;;;5055456;28;20356;-47
2022/06/10 05:01:58;;;;;;;8.23;4.47;;;21.60;99.90;;;;;;5061008;28;20443;-50
2022/06/10 05:04:24;;;;;;;9.68;3.95;;;22.10;99.90;;;;;;5059399;28;20735;-48
2022/06/10 05:06:49;;;;;;;9.27;3.92;;;22.50;99.90;;;;;;5054455;28;20096;-46
2022/06/10 05:09:15;;;;;;;10.32;3.72;;;23.00;99.90;;;;;;5046206;28;20045;-49
2022/06/10 05:11:40;;;;;;;10.10;3.63;;;23.70;99.90;;;;;;5056942;28;20040;-49
2022/06/10 05:14:06;;;;;;;11.02;4.20;;;23.60;99.40;;;;;;5063991;28;20037;-47
2022/06/10 05:16:32;;;;;;;9.02;3.97;;;23.30;98.00;;;;;;5062910;28;20055;-47
2022/06/10 05:18:57;;;;;;;6.75;3.40;;;22.90;99.90;;;;;;5062868;28;20094;-51
2022/06/10 05:21:23;;;;;;;9.52;3.60;;;22.40;99.90;;;;;;5058197;28;20513;-46
2022/06/10 05:23:49;;;;;;;10.68;4.13;;;21.60;99.90;;;;;;5062522;28;20041;-47
2022/06/10 05:26:16;;;;;;;9.27;4.07;;;21.00;99.90;;;;;;5060060;28;20445;-47
2022/06/10 05:28:41;;;;;;;9.40;3.63;;;20.20;99.90;;;;;;5064233;28;20032;-47
2022/06/10 05:31:07;;;;;;;8.18;3.38;;;19.20;99.90;;;;;;5056354;28;20498;-47
2022/06/10 05:36:18;;;;;;;7.45;3.60;;;;;;;;;;5056656;28;20053;-48
2022/06/10 05:38:44;;;;;;;10.27;3.92;;;18.10;99.90;;;;;;5057059;28;20037;-46
2022/06/10 05:43:54;;;;;;;10.23;4.75;;;17.60;99.90;;;;;;5054607;28;20332;-48
2022/06/10 05:46:20;;;;;;;10.10;3.78;;;17.40;99.90;;;;;;5042145;28;20052;-51
2022/06/10 05:48:46;;;;;;;9.98;4.07;;;17.20;99.90;;;;;;5061138;28;20033;-51
2022/06/10 05:51:11;;;;;;;9.65;4.13;;;17.00;99.90;;;;;;5061289;28;20127;-51
2022/06/10 05:53:37;;;;;;;9.20;4.03;;;16.90;99.90;;;;;;5064013;28;20052;-54
2022/06/10 05:56:03;;;;;;;11.43;3.75;;;16.70;99.90;;;;;;5065793;28;20510;-54
2022/06/10 05:58:30;;;;;;;10.27;4.10;;;16.70;99.90;;;;;;5066261;28;20048;-54
2022/06/10 06:00:56;;;;;;;9.18;4.20;;;16.80;99.90;;;;;;5058611;28;20052;-52
2022/06/10 06:03:22;;;;;;;9.70;3.83;;;16.90;99.90;;;;;;5064673;28;20509;-54
2022/06/10 06:05:47;;;;;;;8.50;3.92;;;17.00;99.90;;;;;;5064167;28;20423;-54
2022/06/10 06:08:13;;;;;;;10.70;3.92;;;17.00;99.90;;;;;;5058404;28;20501;-52
2022/06/10 06:10:38;;;;;;;6.50;3.30;;;17.10;99.90;;;;;;5063647;28;20039;-55
2022/06/10 06:13:04;;;;;;;6.97;3.15;;;17.00;99.90;;;;;;5062219;28;20094;-54
2022/06/10 06:15:30;;;;;;;13.95;3.55;;;17.00;99.90;;;;;;5064420;28;20117;-54
2022/06/10 06:17:56;;;;;;;7.72;2.97;;;16.90;99.90;;;;;;5060844;28;20040;-55
2022/06/10 06:20:23;;;;;;;10.32;2.90;;;16.90;99.90;;;;;;5068038;28;20037;-54
2022/06/10 06:22:49;;;;;;;9.95;3.20;;;16.90;99.90;;;;;;5061238;28;20391;-54
2022/06/10 06:25:16;;;;;;;6.82;2.70;;;16.80;99.90;;;;;;5053986;28;20032;-54
2022/06/10 06:27:43;;;;;;;9.52;3.20;;;16.80;99.90;;;;;;5059950;28;20032;-53
2022/06/10 06:30:22;;;;;;;8.80;2.75;;;16.70;99.90;;;;;;5067383;28;20098;-53
2022/06/10 06:32:48;;;;;;;11.70;3.08;;;16.60;99.90;;;;;;5062153;28;20040;-56
2022/06/10 06:35:15;;;;;;;8.80;3.15;;;16.60;99.90;;;;;;5058599;28;20037;-50
2022/06/10 06:37:41;;;;;;;12.18;3.42;;;16.50;99.90;;;;;;5054966;28;20676;-54
2022/06/10 06:40:09;;;;;;;9.63;3.28;;;16.60;99.90;;;;;;5059877;28;20040;-54
2022/06/10 06:42:36;;;;;;;8.65;3.15;;;16.80;99.90;;;;;;5062705;28;20075;-55
2022/06/10 06:45:03;;;;;;;13.00;3.53;;;16.90;99.90;;;;;;5059918;28;20053;-54
2022/06/10 06:47:29;;;;;;;11.60;3.63;;;16.90;99.90;;;;;;5067665;28;20055;-54
2022/06/10 06:49:55;;;;;;;8.00;3.38;;;16.70;99.90;;;;;;5059719;28;20037;-53
2022/06/10 06:52:20;;;;;;;9.18;3.60;;;16.60;99.90;;;;;;5062624;28;20072;-54
2022/06/10 06:54:46;;;;;;;8.52;3.72;;;16.40;99.90;;;;;;5053916;28;20076;-54
2022/06/10 06:57:11;;;;;;;10.15;3.90;;;16.40;99.90;;;;;;5066116;28;20032;-53
2022/06/10 06:59:38;;;;;;;11.88;4.13;;;16.40;99.90;;;;;;5060665;28;20525;-54
2022/06/10 07:02:04;;;;;;;10.60;4.40;;;16.40;99.90;;;;;;5060722;28;20048;-54
2022/06/10 07:04:29;;;;;;;8.38;4.18;;;16.30;99.90;;;;;;5064778;28;20060;-55
2022/06/10 07:06:55;;;;;;;13.68;4.40;;;16.40;99.90;;;;;;5063204;28;20072;-54
2022/06/10 07:09:21;;;;;;;8.00;4.20;;;16.50;99.90;;;;;;5062454;28;21405;-55
2022/06/10 07:11:46;;;;;;;9.30;3.90;;;16.60;99.90;;;;;;5064022;28;20044;-55
2022/06/10 07:14:13;;;;;;;11.50;4.65;;;16.80;99.90;;;;;;5060461;28;20057;-54
2022/06/10 07:16:41;;;;;;;12.07;4.90;;;16.80;99.90;;;;;;5058302;28;20179;-55
2022/06/10 07:19:08;;;;;;;9.02;4.30;;;17.00;99.90;;;;;;5063543;28;20532;-56
2022/06/10 07:21:33;;;;;;;9.02;4.10;;;16.90;99.90;;;;;;5065136;28;20037;-55
2022/06/10 07:23:59;;;;;;;6.20;3.75;;;16.90;99.90;;;;;;5059253;28;20047;-56
2022/06/10 07:26:25;;;;;;;9.40;4.20;;;17.10;99.90;;;;;;5064439;28;20052;-55
2022/06/10 07:28:51;;;;;;;10.80;4.80;;;17.30;99.90;;;;;;5061052;28;20460;-54
2022/06/10 07:31:17;;;;;;;11.45;4.18;;;17.60;99.90;;;;;;5061196;28;20041;-55
2022/06/10 07:33:43;;;;;;;8.32;4.30;;;17.70;99.90;;;;;;5061894;28;20504;-56
2022/06/10 07:36:10;;;;;;;6.55;3.83;;;17.80;99.90;;;;;;5063577;28;20052;-53
2022/06/10 07:38:37;;;;;;;9.90;4.55;;;18.10;99.90;;;;;;5062099;28;20127;-55
2022/06/10 07:43:47;;;;;;;6.75;3.45;;;18.80;99.90;;;;;;5050652;28;20049;-55
2022/06/10 07:46:16;;;;;;;9.63;3.90;;;18.80;99.90;;;;;;5050045;28;20037;-56
2022/06/10 07:48:42;;;;;;;8.70;4.10;;;19.00;99.90;;;;;;5064140;28;20036;-55
2022/06/10 07:51:08;;;;;;;8.73;3.55;;;19.40;99.90;;;;;;5062330;28;20055;-56
2022/06/10 07:53:34;;;;;;;8.32;3.45;;;19.70;99.90;;;;;;5063447;28;20487;-55
2022/06/10 07:56:00;;;;;;;11.60;3.42;;;19.70;99.90;;;;;;5062304;28;20036;-56
2022/06/10 07:58:28;;;;;;;9.27;3.20;;;19.80;99.90;;;;;;5054198;28;20037;-54
2022/06/10 08:00:54;;;;;;;7.72;3.13;;;19.60;99.90;;;;;;5052218;28;20057;-55
2022/06/10 08:03:20;;;;;;;6.95;3.47;;;19.60;99.90;;;;;;5051186;28;20041;-55
2022/06/10 08:05:45;;;;;;;8.73;3.38;;;19.50;99.90;;;;;;5052757;28;20048;-56
2022/06/10 08:08:17;;;;;;;9.98;3.00;;;19.50;99.90;;;;;;5052772;28;20041;-54
2022/06/10 08:10:44;;;;;;;8.98;3.60;;;19.40;99.90;;;;;;5052301;28;20086;-55
2022/06/10 08:13:10;;;;;;;6.67;3.20;;;19.30;99.90;;;;;;5052430;28;20483;-55
2022/06/10 08:15:36;;;;;;;8.13;3.45;;;19.20;99.90;;;;;;5052583;28;20279;-55
2022/06/10 08:18:03;;;;;;;7.60;3.20;;;19.10;99.90;;;;;;5052560;28;20051;-56
2022/06/10 08:23:17;;;;;;;7.88;3.20;;;19.10;99.90;;;;;;5052643;28;20186;-56
2022/06/10 08:25:43;;;;;;;7.72;3.30;;;19.00;99.90;;;;;;5052590;28;20069;-54
2022/06/10 08:28:09;;;;;;;7.30;3.53;;;18.90;99.90;;;;;;5052163;28;20041;-56
2022/06/10 08:30:35;;;;;;;8.15;3.75;;;18.90;99.90;;;;;;5052900;28;20073;-55
2022/06/10 08:33:04;;;;;;;8.48;4.20;;;19.00;99.90;;;;;;5052498;28;20043;-56
2022/06/10 08:35:31;;;;;;;7.95;3.67;;;19.10;99.90;;;;;;5052451;28;20522;-54
2022/06/10 08:37:58;;;;;;;9.68;3.78;;;19.20;99.90;;;;;;5052468;28;20045;-55
2022/06/10 08:40:42;;;;;;;9.47;4.20;;;19.20;99.90;;;;;;5051407;28;20076;-54
2022/06/10 08:43:28;;;;;;;8.73;3.88;;;19.30;99.90;;;;;;5052829;28;20120;-56
2022/06/10 08:46:30;;;;;;;7.53;3.38;;;19.60;99.90;;;;;;5056807;28;20053;-55
2022/06/10 08:49:04;;;;;;;6.38;3.65;;;19.70;99.90;;;;;;5056002;28;20044;-55
2022/06/10 08:51:50;;;;;;;9.02;3.47;;;19.90;99.90;;;;;;5056145;28;20518;-55
2022/06/10 08:54:33;;;;;;;5.83;3.17;;;20.10;99.90;;;;;;5038192;28;20128;-56
2022/06/10 08:57:05;;;;;;;7.70;3.40;;;20.30;99.90;;;;;;5055963;28;20283;-56
2022/06/10 08:59:39;;;;;;;8.52;3.60;;;20.20;99.90;;;;;;5055879;28;20045;-56
2022/06/10 09:02:22;;;;;;;10.25;3.50;;;20.20;99.90;;;;;;5056116;28;20056;-55
2022/06/10 09:04:54;;;;;;;8.88;3.70;;;20.00;99.90;;;;;;5056111;28;20406;-55
2022/06/10 09:07:46;;;;;;;7.47;3.22;;;19.90;99.90;;;;;;5055003;28;20048;-56
2022/06/10 09:10:42;;;;;;;9.85;3.38;;;19.80;99.90;;;;;;5055897;28;20037;-56
2022/06/10 09:13:25;;;;;;;9.43;3.25;;;19.70;99.90;;;;;;5054630;28;20114;-55
2022/06/10 09:16:09;;;;;;;7.38;3.10;;;19.70;99.90;;;;;;5055815;28;20398;-56
2022/06/10 09:18:34;;;;;;;10.68;3.60;;;19.60;99.90;;;;;;5055915;28;20041;-54
2022/06/10 09:21:11;;;;;;;8.20;3.25;;;19.50;99.90;;;;;;5055850;28;20457;-56
2022/06/10 09:23:44;;;;;;;7.97;3.20;;;19.60;99.90;;;;;;5055793;28;20045;-56
2022/06/10 09:26:19;;;;;;;11.90;3.50;;;19.50;99.90;;;;;;5055565;28;20041;-56
2022/06/10 09:28:44;;;;;;;7.13;3.45;;;19.40;99.90;;;;;;5055542;28;20080;-56
2022/06/10 09:31:41;;;;;;;8.38;3.42;;;19.30;99.90;;;;;;5055546;28;20088;-55
2022/06/10 09:34:21;;;;;;;12.35;3.70;;;19.20;99.90;;;;;;5051155;28;20102;-55
2022/06/10 09:37:09;;;;;;;9.88;3.38;;;19.10;99.90;;;;;;5055380;28;20052;-55
2022/06/10 09:42:48;;;;;;;;;;;19.20;99.90;;;;;;5055767;28;20072;-55
2022/06/10 09:45:20;;;;;;;9.73;3.33;;;19.30;99.90;;;;;;5055092;28;19929;-56
2022/06/10 09:48:08;;;;;;;12.85;3.70;;;19.50;99.90;;;;;;5055333;28;20051;-56
2022/06/10 09:51:10;;;;;;;10.98;3.58;;;19.70;99.90;;;;;;5054947;28;20064;-56
2022/06/10 09:53:53;;;;;;;10.10;3.13;;;19.70;99.90;;;;;;5054908;28;20049;-55
2022/06/10 09:56:49;;;;;;;9.80;3.22;;;20.00;99.90;;;;;;5054576;28;20099;-56
2022/06/10 09:59:14;;;;;;;8.85;3.70;;;20.30;99.90;;;;;;5055434;28;20082;-56
2022/06/10 10:01:43;;;;;;;6.80;2.90;;;20.70;99.90;;;;;;5054920;28;20044;-56
2022/06/10 10:04:38;;;;;;;11.75;2.58;;;21.00;99.90;;;;;;5054665;28;20049;-55
2022/06/10 10:07:13;;;;;;;6.93;2.50;;;21.50;99.90;;;;;;5055091;28;20040;-57
2022/06/10 10:09:50;;;;;;;8.35;2.90;;;21.90;99.90;;;;;;5054916;28;20391;-56
2022/06/10 10:12:33;;;;;;;7.38;3.10;;;22.20;99.90;;;;;;5054615;28;20135;-56
2022/06/10 10:15:31;;;;;;;8.15;2.97;;;22.30;99.90;;;;;;5054889;28;20136;-56
2022/06/10 10:18:11;;;;;;;6.70;3.40;;;22.30;99.90;;;;;;5054634;28;20064;-57
2022/06/10 10:20:49;;;;;;;10.48;3.55;;;22.80;99.90;;;;;;5054598;28;20060;-56
2022/06/10 10:23:25;;;;;;;8.93;3.42;;;22.80;99.90;;;;;;5054712;28;20048;-56
2022/06/10 10:25:50;;;;;;;12.77;3.90;;;22.80;99.90;;;;;;5054455;28;20509;-57
2022/06/10 10:28:20;;;;;;;7.28;3.20;;;23.00;99.90;;;;;;5054557;28;20040;-56
2022/06/10 10:31:13;;;;;;;9.77;3.60;;;23.20;99.90;;;;;;5054876;28;20037;-56
2022/06/10 10:33:40;;;;;;;6.95;3.40;;;23.10;99.90;;;;;;5054483;28;20049;-56
2022/06/10 10:36:22;;;;;;;8.02;3.40;;;23.30;99.90;;;;;;5054383;28;20491;-56
2022/06/10 10:38:50;;;;;;;9.07;3.67;;;23.50;99.90;;;;;;5036346;28;20083;-56
2022/06/10 10:41:29;;;;;;;8.20;3.30;;;23.70;99.90;;;;;;5053072;28;20041;-56
2022/06/10 10:44:01;;;;;;;8.43;3.25;;;23.90;99.90;;;;;;5054116;28;20047;-57
2022/06/10 10:46:35;;;;;;;8.20;2.83;;;24.00;99.90;;;;;;5054313;28;20045;-56
2022/06/10 10:49:20;;;;;;;6.78;2.85;;;24.20;99.90;;;;;;5053965;28;20037;-56
2022/06/10 10:51:49;;;;;;;5.90;2.40;;;24.20;99.90;;;;;;5053573;28;20045;-55
2022/06/10 10:54:31;;;;;;;7.20;2.42;;;24.00;99.90;;;;;;5053816;28;20043;-56
2022/06/10 10:56:58;;;;;;;6.72;2.05;;;24.60;99.90;;;;;;5054073;28;20494;-57
2022/06/10 10:59:29;;;;;;;;;;;24.60;99.90;;;;;;5054315;28;20044;-56
2022/06/10 11:01:56;;;;;;;8.55;5.72;;;24.70;99.90;;;;;;5052734;28;20437;-56
2022/06/10 11:04:36;;;;;;;4.82;2.40;;;24.30;99.90;;;;;;5053744;28;20041;-56
2022/06/10 11:07:11;;;;;;;8.27;2.45;;;24.00;99.90;;;;;;5052748;28;20588;-56
2022/06/10 11:09:45;;;;;;;7.28;2.60;;;24.30;99.90;;;;;;5053461;28;20462;-57
2022/06/10 11:12:20;;;;;;;7.93;2.72;;;24.60;99.90;;;;;;5053970;28;20037;-57
2022/06/10 11:14:49;;;;;;;10.38;2.75;;;24.60;99.90;;;;;;5053498;28;20499;-57
2022/06/10 11:17:22;;;;;;;6.20;2.20;;;24.70;99.90;;;;;;5053281;28;20116;-57
2022/06/10 11:20:00;;;;;;;8.60;2.47;;;24.70;99.90;;;;;;5053531;28;20087;-57
2022/06/10 11:22:38;;;;;;;6.68;2.30;;;25.00;99.90;;;;;;5053382;28;20091;-57
2022/06/10 11:25:03;;;;;;;5.00;2.30;;;25.20;99.90;;;;;;5053414;28;20380;-57
2022/06/10 11:27:32;;;;;;;6.47;2.17;;;25.10;99.90;;;;;;5053978;28;20056;-57
2022/06/10 11:30:10;;;;;;;5.72;2.33;;;25.10;99.90;;;;;;5053372;28;20045;-57
2022/06/10 11:32:48;;;;;;;10.20;2.53;;;24.80;99.90;;;;;;5053266;28;20052;-55
2022/06/10 11:35:31;;;;;;;5.35;2.30;;;24.80;99.90;;;;;;5051832;28;20124;-57
2022/06/10 11:38:03;;;;;;;6.90;2.30;;;24.70;99.90;;;;;;5053163;28;20040;-56
2022/06/10 11:40:46;;;;;;;5.22;2.08;;;25.00;99.90;;;;;;5051826;28;20083;-57
2022/06/10 11:43:22;;;;;;;4.18;2.13;;;24.80;99.90;;;;;;5052994;28;20057;-56
2022/06/10 11:45:55;;;;;;;4.82;2.28;;;24.80;99.90;;;;;;5053134;28;20049;-56
2022/06/10 11:48:39;;;;;;;4.40;2.05;;;25.00;99.90;;;;;;5052817;28;20120;-56
2022/06/10 11:51:26;;;;;;;6.10;2.25;;;25.30;99.90;;;;;;5051503;28;20131;-57
2022/06/10 11:54:18;;;;;;;;;;;24.80;99.90;;;;;;5053388;28;20033;-56
2022/06/10 11:59:52;;;;;;;5.97;2.10;;;24.20;99.90;;;;;;5053239;28;20053;-57
2022/06/10 12:02:31;;;;;;;8.75;2.42;;;24.00;99.90;;;;;;5052947;28;20045;-56
2022/06/10 12:05:14;;;;;;;8.88;2.20;;;23.90;99.90;;;;;;5052827;28;20037;-56
2022/06/10 12:07:49;;;;;;;9.15;2.65;;;23.60;99.90;;;;;;5052915;28;20051;-56
2022/06/10 12:10:22;;;;;;;8.20;2.17;;;23.50;99.90;;;;;;5053062;28;20052;-57
2022/06/10 12:12:48;;;;;;;6.68;1.90;;;23.40;99.90;;;;;;5052880;28;20124;-57
2022/06/10 12:15:30;;;;;;;6.32;2.17;;;23.30;99.90;;;;;;5052686;28;20116;-56
2022/06/10 12:18:00;;;;;;;6.80;2.50;;;23.20;99.90;;;;;;5052860;28;20036;-56
2022/06/10 12:20:41;;;;;;;6.65;2.45;;;23.30;99.90;;;;;;5057009;28;20041;-56
2022/06/10 12:23:26;;;;;;;7.85;2.40;;;23.50;99.90;;;;;;5056864;28;20080;-57
2022/06/10 12:26:00;;;;;;;8.07;2.35;;;23.80;99.90;;;;;;5056609;28;20037;-56
2022/06/10 12:28:44;;;;;;;8.35;2.13;;;23.80;99.90;;;;;;5056698;28;20044;-57
2022/06/10 12:31:19;;;;;;;7.25;2.30;;;23.80;99.90;;;;;;5056680;28;20076;-57
2022/06/10 12:33:52;;;;;;;6.85;2.08;;;24.00;99.90;;;;;;5056617;28;20052;-57
2022/06/10 12:36:29;;;;;;;7.75;2.42;;;24.00;99.90;;;;;;5056457;28;20483;-57
2022/06/10 12:38:57;;;;;;;4.93;1.90;;;24.10;99.90;;;;;;5055253;28;20510;-57
2022/06/10 12:41:36;;;;;;;7.15;1.70;;;24.10;99.90;;;;;;5056537;28;20041;-56
2022/06/10 12:44:06;;;;;;;6.35;2.08;;;23.90;99.90;;;;;;5056406;28;20048;-56
2022/06/10 12:46:40;;;;;;;5.95;1.83;;;23.80;99.90;;;;;;5056364;28;20041;-56
2022/06/10 12:49:16;;;;;;;6.78;2.47;;;23.70;99.90;;;;;;5056507;28;20052;-56
2022/06/10 12:51:48;;;;;;;9.45;2.10;;;23.70;99.90;;;;;;5056155;28;20049;-57
2022/06/10 12:54:33;;;;;;;8.40;1.90;;;23.80;99.90;;;;;;5056360;28;20037;-57
2022/06/10 12:57:22;;;;;;;5.80;1.58;;;24.00;99.90;;;;;;5056103;28;20056;-56
2022/06/10 12:59:47;;;;;;;8.43;2.63;;;24.20;99.90;;;;;;5055980;28;20402;-57
2022/06/10 13:02:52;;;;;;;5.15;1.80;;;24.20;99.90;;;;;;5056151;28;20049;-57
2022/06/10 13:05:27;;;;;;;6.93;2.45;;;24.60;99.90;;;;;;5055461;28;20140;-56
2022/06/10 13:07:55;;;;;;;5.97;1.92;;;24.80;99.90;;;;;;5055924;28;20556;-57
2022/06/10 13:10:30;;;;;;;6.53;2.28;;;24.60;99.90;;;;;;5055916;28;20383;-56
2022/06/10 13:13:13;;;;;;;7.65;2.10;;;24.70;99.90;;;;;;5055911;28;20060;-57
2022/06/10 13:15:39;;;;;;;4.47;1.70;;;24.90;99.90;;;;;;5056031;28;20044;-56
2022/06/10 13:18:17;;;;;;;6.65;2.03;;;24.90;99.90;;;;;;5055550;28;20045;-57
2022/06/10 13:20:45;;;;;;;9.45;2.40;;;24.80;99.90;;;;;;5055692;28;20052;-55
2022/06/10 13:23:19;;;;;;;9.05;2.17;;;24.80;99.90;;;;;;5055635;28;20041;-56
2022/06/10 13:25:51;;;;;;;6.68;1.98;;;24.90;99.90;;;;;;5055829;28;20056;-56
2022/06/10 13:28:24;;;;;;;6.28;1.92;;;25.00;99.90;;;;;;5055476;28;20483;-57
2022/06/10 13:31:01;;;;;;;8.20;1.80;;;24.80;99.90;;;;;;5054672;28;20044;-57
2022/06/10 13:33:27;;;;;;;6.13;2.23;;;24.80;99.90;;;;;;5055516;28;20399;-57
2022/06/10 13:35:53;;;;;;;8.95;1.98;;;24.80;99.90;;;;;;5055444;28;20045;-57
2022/06/10 13:38:34;;;;;;;7.80;1.90;;;24.80;99.90;;;;;;5055374;28;20128;-56
2022/06/10 13:43:52;;;;;;;6.40;2.30;;;25.10;99.90;;;;;;5055329;28;20052;-57